Time;durP1;ratioP1;P1;durP2;ratioP2;P2;SDS_P1;SDS_P2;PMS_P1;PMS_P2;Temp;Humidity;BMP_temperature;BMP_pressure;BME280_temperature;BME280_humidity;BME280_pressure;Samples;Min_cycle;Max_cycle;Signal;HPM_P1;HPM_P2
2022/05/18 00:00:47;;;;;;;9.10;4.50;;;17.80;99.90;;;;;;5052677;28;20053;-69
2022/05/18 00:03:14;;;;;;;7.93;4.50;;;17.80;99.90;;;;;;5038374;28;20094;-69
2022/05/18 00:05:41;;;;;;;9.13;4.15;;;17.70;99.90;;;;;;5037849;28;20417;-69
2022/05/18 00:08:08;;;;;;;7.88;3.97;;;17.80;99.90;;;;;;5038311;28;20063;-68
2022/05/18 00:10:35;;;;;;;8.57;4.40;;;17.70;99.90;;;;;;5053594;28;20087;-69
2022/05/18 00:13:01;;;;;;;7.85;4.57;;;17.70;99.90;;;;;;5052482;28;20450;-68
2022/05/18 00:15:28;;;;;;;8.02;4.40;;;17.70;99.90;;;;;;5053872;28;20504;-70
2022/05/18 00:17:54;;;;;;;10.77;4.90;;;17.60;99.90;;;;;;5038146;28;20049;-69
2022/05/18 00:20:21;;;;;;;9.07;4.43;;;17.60;99.90;;;;;;5052041;28;20029;-68
2022/05/18 00:22:55;;;;;;;8.38;3.78;;;17.60;99.90;;;;;;5038091;28;20067;-70
2022/05/18 00:25:24;;;;;;;9.98;4.70;;;17.60;99.90;;;;;;5054467;28;20516;-69
2022/05/18 00:27:50;;;;;;;9.90;4.75;;;17.50;99.90;;;;;;5038186;28;20040;-69
2022/05/18 00:30:18;;;;;;;9.75;4.47;;;17.50;99.90;;;;;;5053462;28;20051;-69
2022/05/18 00:32:44;;;;;;;8.80;4.57;;;17.50;99.90;;;;;;5037838;28;20041;-69
2022/05/18 00:35:11;;;;;;;8.68;4.78;;;17.50;99.90;;;;;;5054396;28;20041;-69
2022/05/18 00:37:36;;;;;;;9.75;4.75;;;17.50;99.90;;;;;;5037937;28;20037;-69
2022/05/18 00:40:02;;;;;;;7.97;4.97;;;17.50;99.90;;;;;;5036318;28;20082;-69
2022/05/18 00:42:28;;;;;;;8.20;4.78;;;17.50;99.90;;;;;;5037756;28;20048;-69
2022/05/18 00:44:55;;;;;;;8.27;4.90;;;17.40;99.90;;;;;;5054212;28;20041;-70
2022/05/18 00:47:20;;;;;;;9.15;5.00;;;17.40;99.90;;;;;;5054534;28;20435;-69
2022/05/18 00:49:53;;;;;;;7.90;4.95;;;17.30;99.90;;;;;;5036102;28;20033;-69
2022/05/18 00:52:23;;;;;;;9.23;4.63;;;17.30;99.90;;;;;;5035112;28;20033;-69
2022/05/18 00:54:51;;;;;;;8.35;5.13;;;17.30;99.90;;;;;;5053168;28;21397;-69
2022/05/18 00:57:29;;;;;;;8.98;5.20;;;17.40;99.90;;;;;;5053978;28;20044;-69
2022/05/18 01:00:11;;;;;;;10.65;5.25;;;17.30;99.90;;;;;;5050840;28;20087;-69
2022/05/18 01:02:39;;;;;;;9.27;5.70;;;17.30;99.90;;;;;;5037254;28;20053;-69
2022/05/18 01:05:09;;;;;;;9.65;5.55;;;17.20;99.90;;;;;;5037067;28;20044;-68
2022/05/18 01:07:39;;;;;;;9.88;5.40;;;17.20;99.90;;;;;;5037439;28;20157;-68
2022/05/18 01:10:06;;;;;;;10.45;5.18;;;17.10;99.90;;;;;;5051888;28;20122;-69
2022/05/18 01:12:32;;;;;;;10.95;5.57;;;17.10;99.90;;;;;;5053725;28;20177;-69
2022/05/18 01:15:11;;;;;;;8.93;4.90;;;17.10;99.90;;;;;;5052720;28;20546;-70
2022/05/18 01:17:40;;;;;;;11.32;6.18;;;17.10;99.90;;;;;;5053862;28;20240;-69
2022/05/18 01:20:12;;;;;;;10.35;5.40;;;17.00;99.90;;;;;;5036103;28;20055;-70
2022/05/18 01:22:50;;;;;;;10.52;5.45;;;17.00;99.90;;;;;;5053545;28;20515;-69
2022/05/18 01:25:18;;;;;;;9.75;5.68;;;17.10;99.90;;;;;;5050412;28;20500;-69
2022/05/18 01:27:44;;;;;;;11.00;5.18;;;17.00;99.90;;;;;;5053377;28;20261;-69
2022/05/18 01:30:10;;;;;;;8.75;5.45;;;17.10;99.90;;;;;;5036636;28;20052;-69
2022/05/18 01:32:42;;;;;;;11.32;5.38;;;17.10;99.90;;;;;;5036617;28;20048;-69
2022/05/18 01:35:10;;;;;;;8.85;5.40;;;17.10;99.90;;;;;;5035997;28;20045;-70
2022/05/18 01:37:36;;;;;;;10.13;6.07;;;17.10;99.90;;;;;;5053563;28;20041;-69
2022/05/18 01:40:08;;;;;;;8.18;5.38;;;17.00;99.90;;;;;;5052502;28;20037;-70
2022/05/18 01:42:44;;;;;;;10.57;5.47;;;16.90;99.90;;;;;;5036884;28;20393;-70
2022/05/18 01:45:10;;;;;;;8.98;5.55;;;16.90;99.90;;;;;;5052004;28;20041;-70
2022/05/18 01:47:39;;;;;;;10.30;5.28;;;16.90;99.90;;;;;;5053345;28;20389;-70
2022/05/18 01:50:12;;;;;;;10.05;5.75;;;17.00;99.90;;;;;;5051978;28;20060;-70
2022/05/18 01:52:38;;;;;;;9.77;5.20;;;17.00;99.90;;;;;;5052850;28;20055;-70
2022/05/18 01:55:05;;;;;;;10.55;5.10;;;16.90;99.90;;;;;;5034014;28;20452;-70
2022/05/18 01:57:33;;;;;;;9.52;5.65;;;16.90;99.90;;;;;;5051922;28;20029;-70
2022/05/18 01:59:59;;;;;;;13.40;5.70;;;16.90;99.90;;;;;;5051740;28;20091;-69
2022/05/18 02:02:24;;;;;;;9.57;5.53;;;16.90;99.90;;;;;;5050963;28;20065;-70
2022/05/18 02:04:50;;;;;;;11.13;5.57;;;16.90;99.90;;;;;;5043736;28;20041;-70
2022/05/18 02:07:17;;;;;;;8.13;4.90;;;16.90;99.90;;;;;;5028822;28;20048;-70
2022/05/18 02:09:42;;;;;;;10.35;5.53;;;16.90;99.90;;;;;;5019090;28;20041;-70
2022/05/18 02:12:11;;;;;;;11.63;5.68;;;16.90;99.90;;;;;;5030965;28;20488;-70
2022/05/18 02:14:37;;;;;;;11.15;5.85;;;17.00;99.90;;;;;;5039875;28;20103;-70
2022/05/18 02:17:03;;;;;;;9.27;5.28;;;17.00;99.90;;;;;;5049186;28;20037;-70
2022/05/18 02:19:28;;;;;;;9.88;5.53;;;17.00;99.90;;;;;;5047751;28;20041;-70
2022/05/18 02:21:54;;;;;;;9.43;5.40;;;17.00;99.90;;;;;;5028903;28;20044;-70
2022/05/18 02:24:19;;;;;;;8.65;5.22;;;17.00;99.90;;;;;;5038595;28;20493;-70
2022/05/18 02:26:45;;;;;;;9.13;5.32;;;17.00;99.90;;;;;;5024414;28;20428;-70
2022/05/18 02:29:11;;;;;;;11.10;5.20;;;16.90;99.90;;;;;;5023757;28;20056;-70
2022/05/18 02:31:36;;;;;;;10.55;5.47;;;16.90;99.90;;;;;;5014469;28;20041;-70
2022/05/18 02:34:03;;;;;;;9.75;5.40;;;16.90;99.90;;;;;;5028195;28;20078;-70
2022/05/18 02:36:29;;;;;;;8.73;5.47;;;16.90;99.90;;;;;;5011824;28;20120;-70
2022/05/18 02:38:55;;;;;;;8.40;5.00;;;16.90;99.90;;;;;;5032532;28;20397;-70
2022/05/18 02:41:21;;;;;;;10.95;5.45;;;17.00;99.90;;;;;;5013350;28;20060;-70
2022/05/18 02:43:46;;;;;;;10.52;5.28;;;16.90;99.90;;;;;;5023090;28;20041;-70
2022/05/18 02:46:22;;;;;;;9.70;5.15;;;16.90;99.90;;;;;;5024246;28;20505;-70
2022/05/18 02:48:51;;;;;;;10.20;5.35;;;16.80;99.90;;;;;;5024373;28;20500;-71
2022/05/18 02:51:17;;;;;;;10.38;5.70;;;16.80;99.90;;;;;;5029602;28;20476;-69
2022/05/18 02:53:43;;;;;;;9.70;5.55;;;16.70;99.90;;;;;;5027190;28;20110;-70
2022/05/18 02:56:12;;;;;;;9.45;5.60;;;16.60;99.90;;;;;;5028488;28;20493;-69
2022/05/18 02:58:43;;;;;;;9.35;5.20;;;16.60;99.90;;;;;;5031063;28;20033;-70
2022/05/18 03:01:11;;;;;;;10.38;5.25;;;16.50;99.90;;;;;;5015144;28;20041;-69
2022/05/18 03:03:38;;;;;;;9.77;5.50;;;16.60;99.90;;;;;;5042500;28;20539;-69
2022/05/18 03:06:06;;;;;;;9.80;5.60;;;16.50;99.90;;;;;;5031455;28;20392;-69
2022/05/18 03:08:34;;;;;;;8.38;5.40;;;16.50;99.90;;;;;;5035216;28;20072;-70
2022/05/18 03:11:00;;;;;;;9.38;5.38;;;16.50;99.90;;;;;;5022676;28;20037;-70
2022/05/18 03:13:25;;;;;;;8.50;5.80;;;16.50;99.90;;;;;;5031481;28;20547;-70
2022/05/18 03:15:51;;;;;;;10.07;5.88;;;16.50;99.90;;;;;;5028199;28;20160;-70
2022/05/18 03:18:17;;;;;;;9.18;5.78;;;16.60;99.90;;;;;;5027432;28;20616;-70
2022/05/18 03:23:36;;;;;;;11.13;6.28;;;16.50;99.90;;;;;;5027849;28;20052;-71
2022/05/18 03:26:08;;;;;;;11.13;5.78;;;16.40;99.90;;;;;;5018866;28;20117;-70
2022/05/18 03:28:34;;;;;;;9.07;5.45;;;16.40;99.90;;;;;;5018930;28;20041;-70
2022/05/18 03:31:00;;;;;;;10.75;5.88;;;16.30;99.90;;;;;;5040495;28;20044;-70
2022/05/18 03:33:27;;;;;;;8.57;5.80;;;16.30;99.90;;;;;;5037712;28;20037;-70
2022/05/18 03:35:53;;;;;;;11.65;5.85;;;16.20;99.90;;;;;;5015366;28;20033;-70
2022/05/18 03:38:20;;;;;;;9.35;5.90;;;16.20;99.90;;;;;;5019872;28;20112;-70
2022/05/18 03:40:46;;;;;;;9.23;5.90;;;16.20;99.90;;;;;;5026778;28;20037;-70
2022/05/18 03:43:11;;;;;;;10.30;5.53;;;16.20;99.90;;;;;;5025925;28;20145;-70
2022/05/18 03:45:37;;;;;;;10.98;5.97;;;16.20;99.90;;;;;;5014093;28;20456;-70
2022/05/18 03:48:05;;;;;;;9.40;5.75;;;16.20;99.90;;;;;;5034080;28;20063;-69
2022/05/18 03:50:31;;;;;;;9.68;5.00;;;16.20;99.90;;;;;;5023304;28;20044;-70
2022/05/18 03:52:57;;;;;;;8.55;5.63;;;16.10;99.90;;;;;;5017741;28;20041;-70
2022/05/18 03:55:24;;;;;;;10.93;6.20;;;16.10;99.90;;;;;;5024676;28;20142;-69
2022/05/18 03:57:49;;;;;;;9.68;5.40;;;16.10;99.90;;;;;;5028485;28;20110;-69
2022/05/18 04:00:15;;;;;;;10.80;5.80;;;16.10;99.90;;;;;;5032387;28;20032;-70
2022/05/18 04:02:42;;;;;;;9.68;6.30;;;16.00;99.90;;;;;;5032913;28;20417;-69
2022/05/18 04:05:09;;;;;;;8.68;5.28;;;16.00;99.90;;;;;;5016529;28;20033;-69
2022/05/18 04:07:35;;;;;;;9.48;5.97;;;16.00;99.90;;;;;;5021905;28;20045;-69
2022/05/18 04:10:01;;;;;;;8.45;5.22;;;15.90;99.90;;;;;;5052595;28;20056;-69
2022/05/18 04:12:27;;;;;;;10.25;6.05;;;16.00;99.90;;;;;;5047470;28;20037;-69
2022/05/18 04:14:54;;;;;;;9.93;5.95;;;16.00;99.90;;;;;;5032403;28;20041;-69
2022/05/18 04:17:21;;;;;;;9.13;5.47;;;16.00;99.90;;;;;;5026854;28;20394;-70
2022/05/18 04:19:47;;;;;;;10.93;6.28;;;16.10;99.90;;;;;;5014027;28;20036;-70
2022/05/18 04:22:12;;;;;;;9.70;5.63;;;16.10;99.90;;;;;;5019400;28;20040;-69
2022/05/18 04:24:38;;;;;;;11.02;6.20;;;16.10;99.90;;;;;;5032221;28;20094;-70
2022/05/18 04:27:06;;;;;;;9.23;5.30;;;16.20;99.90;;;;;;5028452;28;20090;-69
2022/05/18 04:29:32;;;;;;;10.77;6.50;;;16.40;99.90;;;;;;5029228;28;20052;-69
2022/05/18 04:31:57;;;;;;;12.75;6.43;;;16.40;99.90;;;;;;5026192;28;20040;-70
2022/05/18 04:34:23;;;;;;;9.48;5.93;;;16.50;99.90;;;;;;5040365;28;20048;-70
2022/05/18 04:36:48;;;;;;;9.98;6.05;;;16.60;99.90;;;;;;5029642;28;20556;-70
2022/05/18 04:39:14;;;;;;;10.48;5.88;;;16.60;99.90;;;;;;5026898;28;20037;-70
2022/05/18 04:41:39;;;;;;;10.05;5.97;;;16.60;99.90;;;;;;5043079;28;20059;-70
2022/05/18 04:44:05;;;;;;;10.15;5.60;;;16.70;99.90;;;;;;5031798;28;20072;-70
2022/05/18 04:46:31;;;;;;;8.75;6.25;;;16.70;99.90;;;;;;5032204;28;20649;-70
2022/05/18 04:48:56;;;;;;;11.00;6.15;;;16.60;99.90;;;;;;5036503;28;20127;-70
2022/05/18 04:51:22;;;;;;;11.38;6.50;;;16.60;99.90;;;;;;5027345;28;20040;-70
2022/05/18 04:53:47;;;;;;;10.15;5.95;;;16.60;99.90;;;;;;5026115;28;20400;-70
2022/05/18 04:56:13;;;;;;;10.63;6.60;;;16.70;99.90;;;;;;5031483;28;20037;-70
2022/05/18 04:58:38;;;;;;;11.07;6.97;;;16.90;99.90;;;;;;5029155;28;20370;-70
2022/05/18 05:01:07;;;;;;;12.18;5.70;;;16.70;99.90;;;;;;5014116;28;20513;-70
2022/05/18 05:03:32;;;;;;;9.65;6.20;;;16.80;99.90;;;;;;5013933;28;20072;-70
2022/05/18 05:05:58;;;;;;;11.93;6.65;;;16.80;99.90;;;;;;5012738;28;20128;-70
2022/05/18 05:08:23;;;;;;;9.30;6.60;;;16.90;99.90;;;;;;5025554;28;20071;-70
2022/05/18 05:10:49;;;;;;;12.77;6.95;;;16.90;99.90;;;;;;5029658;28;20047;-70
2022/05/18 05:13:15;;;;;;;10.95;6.78;;;17.00;99.90;;;;;;5025961;28;20060;-70
2022/05/18 05:15:41;;;;;;;11.35;6.82;;;17.20;99.90;;;;;;5041224;28;20040;-70
2022/05/18 05:18:06;;;;;;;12.25;7.43;;;17.20;99.90;;;;;;5028700;28;20040;-70
2022/05/18 05:20:32;;;;;;;12.63;7.43;;;17.00;99.90;;;;;;5029243;28;20040;-70
2022/05/18 05:22:58;;;;;;;10.52;6.35;;;17.00;99.90;;;;;;5027310;28;20122;-70
2022/05/18 05:25:23;;;;;;;10.40;6.68;;;17.20;99.90;;;;;;5033210;28;20075;-70
2022/05/18 05:27:49;;;;;;;11.77;7.28;;;17.40;99.90;;;;;;5026649;28;20060;-70
2022/05/18 05:30:15;;;;;;;11.70;7.63;;;17.30;99.90;;;;;;5025425;28;20069;-69
2022/05/18 05:32:41;;;;;;;11.00;7.60;;;17.30;99.90;;;;;;5035619;28;20048;-70
2022/05/18 05:35:10;;;;;;;11.60;8.35;;;17.40;99.90;;;;;;5015874;28;20044;-70
2022/05/18 05:37:36;;;;;;;9.50;6.35;;;17.50;99.90;;;;;;5032111;28;20119;-70
2022/05/18 05:40:02;;;;;;;12.25;7.68;;;17.60;99.90;;;;;;5025348;28;20043;-70
2022/05/18 05:42:27;;;;;;;12.63;8.07;;;17.60;99.90;;;;;;5016836;28;20052;-70
2022/05/18 05:44:53;;;;;;;12.27;7.38;;;17.50;99.90;;;;;;5027645;28;20045;-70
2022/05/18 05:47:19;;;;;;;11.48;7.72;;;17.70;99.90;;;;;;5019249;28;20146;-70
2022/05/18 05:49:44;;;;;;;12.65;7.88;;;17.80;99.90;;;;;;5014630;28;20049;-70
2022/05/18 05:52:10;;;;;;;11.52;8.38;;;17.80;99.90;;;;;;5009423;28;20541;-70
2022/05/18 05:54:36;;;;;;;13.07;7.93;;;17.90;99.90;;;;;;5030518;28;20637;-70
2022/05/18 05:57:04;;;;;;;12.20;8.10;;;17.90;99.90;;;;;;5035257;28;20032;-70
2022/05/18 05:59:31;;;;;;;14.75;8.65;;;18.00;99.90;;;;;;5009340;28;20069;-70
2022/05/18 06:02:08;;;;;;;12.52;9.05;;;18.10;99.90;;;;;;5033446;28;20095;-70
2022/05/18 06:04:35;;;;;;;13.00;8.75;;;18.10;99.90;;;;;;5022394;28;20041;-70
2022/05/18 06:07:01;;;;;;;13.93;9.15;;;18.10;99.90;;;;;;5015237;28;20145;-70
2022/05/18 06:09:27;;;;;;;12.80;8.93;;;18.30;99.90;;;;;;5031471;28;20037;-70
2022/05/18 06:11:53;;;;;;;12.77;9.07;;;18.30;99.90;;;;;;5027381;28;20033;-70
2022/05/18 06:14:19;;;;;;;12.63;8.25;;;18.40;99.90;;;;;;5007371;28;20048;-70
2022/05/18 06:16:46;;;;;;;12.40;9.15;;;18.60;99.90;;;;;;5013659;28;20158;-70
2022/05/18 06:19:13;;;;;;;12.10;8.30;;;18.70;99.90;;;;;;5046805;28;20044;-70
2022/05/18 06:21:39;;;;;;;14.27;9.00;;;18.80;99.90;;;;;;5020947;28;20072;-70
2022/05/18 06:24:05;;;;;;;14.00;8.82;;;18.90;99.90;;;;;;5031050;28;20128;-70
2022/05/18 06:26:31;;;;;;;15.13;9.02;;;18.90;99.90;;;;;;5028970;28;20047;-70
2022/05/18 06:28:56;;;;;;;15.45;9.43;;;18.90;99.90;;;;;;5026867;28;20045;-70
2022/05/18 06:31:22;;;;;;;13.15;8.77;;;19.00;99.90;;;;;;5036331;28;20135;-70
2022/05/18 06:33:48;;;;;;;12.38;8.90;;;19.10;99.90;;;;;;5024163;28;20047;-70
2022/05/18 06:36:13;;;;;;;11.23;9.02;;;19.10;99.90;;;;;;5011793;28;20068;-70
2022/05/18 06:38:39;;;;;;;11.68;8.50;;;19.20;99.90;;;;;;5028802;28;20045;-70
2022/05/18 06:41:23;;;;;;;11.82;8.30;;;19.40;99.90;;;;;;5027985;28;20043;-70
2022/05/18 06:43:57;;;;;;;13.23;9.00;;;19.40;99.90;;;;;;5028389;28;20051;-70
2022/05/18 06:46:25;;;;;;;13.00;9.02;;;19.50;99.90;;;;;;5031809;28;20120;-70
2022/05/18 06:48:51;;;;;;;14.68;9.07;;;19.70;99.90;;;;;;5004615;28;20601;-70
2022/05/18 06:51:23;;;;;;;11.80;9.00;;;19.80;99.90;;;;;;5020377;28;20600;-70
2022/05/18 06:53:51;;;;;;;11.73;8.85;;;19.90;99.90;;;;;;5026421;28;20034;-70
2022/05/18 06:56:19;;;;;;;11.13;8.10;;;20.00;99.90;;;;;;5025384;28;20036;-70
2022/05/18 06:58:47;;;;;;;13.20;9.02;;;20.20;99.90;;;;;;5026617;28;20467;-70
2022/05/18 07:01:13;;;;;;;11.73;8.30;;;20.20;99.90;;;;;;5028942;28;20073;-70
2022/05/18 07:03:39;;;;;;;14.57;9.65;;;20.20;99.90;;;;;;5014959;28;20067;-70
2022/05/18 07:06:05;;;;;;;15.15;9.40;;;20.40;99.90;;;;;;5014323;28;20662;-70
2022/05/18 07:08:31;;;;;;;15.52;9.27;;;20.40;99.90;;;;;;5012869;28;21401;-70
2022/05/18 07:10:56;;;;;;;14.55;9.35;;;20.40;99.90;;;;;;5011160;28;20268;-70
2022/05/18 07:13:22;;;;;;;12.85;8.48;;;20.50;99.90;;;;;;5033337;28;20033;-70
2022/05/18 07:15:48;;;;;;;11.65;8.13;;;20.60;99.90;;;;;;5008282;28;20379;-71
2022/05/18 07:18:15;;;;;;;13.07;8.93;;;20.70;99.90;;;;;;5028247;28;20061;-70
2022/05/18 07:20:41;;;;;;;14.05;8.88;;;20.70;99.90;;;;;;5032413;28;20033;-71
2022/05/18 07:23:07;;;;;;;12.40;8.82;;;20.80;99.90;;;;;;5034662;28;20041;-70
2022/05/18 07:25:33;;;;;;;13.85;8.68;;;20.90;99.90;;;;;;5026287;28;20123;-81
2022/05/18 07:27:59;;;;;;;12.18;9.10;;;21.00;99.90;;;;;;5041219;28;20122;-75
2022/05/18 07:30:24;;;;;;;13.10;8.90;;;21.00;99.90;;;;;;5029279;28;21656;-75
2022/05/18 07:32:50;;;;;;;13.93;9.45;;;21.10;99.90;;;;;;5023392;28;20050;-73
2022/05/18 07:35:15;;;;;;;13.05;8.70;;;21.20;99.90;;;;;;5021524;28;20290;-74
2022/05/18 07:37:41;;;;;;;13.95;8.85;;;21.20;99.90;;;;;;5021353;28;20436;-73
2022/05/18 07:40:08;;;;;;;12.52;8.82;;;21.30;99.90;;;;;;5004932;28;20043;-73
2022/05/18 07:42:34;;;;;;;10.80;8.48;;;21.50;99.90;;;;;;5018226;28;20041;-73
2022/05/18 07:45:01;;;;;;;11.10;8.75;;;21.50;99.90;;;;;;5008607;28;20063;-73
2022/05/18 07:47:33;;;;;;;13.43;8.65;;;21.60;99.90;;;;;;5028724;28;20614;-73
2022/05/18 07:49:58;;;;;;;;;;;21.60;99.90;;;;;;5013598;28;20052;-73
2022/05/18 07:52:25;;;;;;;13.13;8.75;;;21.60;99.90;;;;;;5028592;28;19925;-73
2022/05/18 07:54:51;;;;;;;11.23;8.18;;;21.80;99.90;;;;;;5010015;28;20040;-73
2022/05/18 07:57:17;;;;;;;12.30;8.05;;;21.80;99.90;;;;;;5009973;28;20036;-73
2022/05/18 07:59:43;;;;;;;12.07;8.15;;;21.90;99.90;;;;;;5020007;28;20040;-73
2022/05/18 08:02:09;;;;;;;11.55;7.68;;;22.00;99.90;;;;;;5016294;28;20102;-73
2022/05/18 08:04:35;;;;;;;11.48;7.68;;;22.20;99.90;;;;;;5023863;28;20045;-74
2022/05/18 08:07:00;;;;;;;11.18;7.63;;;22.40;99.90;;;;;;5038268;28;20044;-73
2022/05/18 08:09:27;;;;;;;12.20;8.02;;;22.40;99.90;;;;;;5016901;28;20033;-73
2022/05/18 08:17:22;;;;;;;10.32;6.97;;;22.60;99.90;;;;;;5027098;28;20057;-74
2022/05/18 08:19:48;;;;;;;10.98;6.50;;;22.70;99.90;;;;;;5065518;28;20042;-74
2022/05/18 08:22:14;;;;;;;11.27;6.60;;;22.80;99.90;;;;;;5048177;28;20555;-74
2022/05/18 08:24:40;;;;;;;9.82;6.18;;;22.80;99.90;;;;;;5037009;28;20400;-72
2022/05/18 08:27:12;;;;;;;9.98;5.78;;;22.90;99.90;;;;;;5053193;28;20033;-74
2022/05/18 08:29:37;;;;;;;11.75;5.70;;;23.00;99.90;;;;;;5037183;28;20370;-75
2022/05/18 08:32:04;;;;;;;10.77;5.25;;;23.00;99.90;;;;;;5054295;28;20090;-74
2022/05/18 08:34:30;;;;;;;10.10;5.05;;;23.10;99.90;;;;;;5051092;28;20045;-74
2022/05/18 08:36:55;;;;;;;10.60;5.18;;;23.20;99.90;;;;;;5052984;28;20048;-74
2022/05/18 08:39:21;;;;;;;9.38;4.82;;;23.30;99.90;;;;;;5053200;28;20029;-74
2022/05/18 08:41:47;;;;;;;8.65;4.97;;;23.40;99.90;;;;;;5052622;28;20523;-74
2022/05/18 08:44:26;;;;;;;13.35;6.28;;;23.50;99.90;;;;;;5052491;28;20049;-75
2022/05/18 08:47:01;;;;;;;9.30;6.18;;;23.60;99.90;;;;;;5017870;28;20068;-74
2022/05/18 08:49:40;;;;;;;10.57;5.97;;;23.60;99.90;;;;;;5034296;28;20052;-75
2022/05/18 08:52:39;;;;;;;9.38;5.55;;;23.80;99.90;;;;;;5051374;28;20055;-75
2022/05/18 08:55:30;;;;;;;9.77;5.45;;;23.90;99.90;;;;;;5041288;28;20447;-75
2022/05/18 08:57:59;;;;;;;10.93;6.03;;;24.00;99.90;;;;;;5033192;28;20104;-75
2022/05/18 09:00:43;;;;;;;13.00;6.03;;;24.00;99.90;;;;;;5036104;28;20037;-74
2022/05/18 09:03:22;;;;;;;12.20;6.32;;;24.10;99.90;;;;;;5036357;28;20040;-79
2022/05/18 09:06:07;;;;;;;11.02;6.65;;;24.30;99.90;;;;;;5052898;28;20489;-77
2022/05/18 09:08:40;;;;;;;11.60;6.10;;;24.30;99.90;;;;;;5035472;28;20048;-77
2022/05/18 09:11:19;;;;;;;12.02;6.88;;;24.40;99.90;;;;;;5053016;28;20037;-77
2022/05/18 09:13:44;;;;;;;9.80;6.38;;;24.50;99.90;;;;;;5047321;28;20438;-78
2022/05/18 09:16:37;;;;;;;11.73;7.05;;;24.50;99.90;;;;;;5034325;28;20060;-78
2022/05/18 09:19:32;;;;;;;11.25;6.15;;;24.60;99.90;;;;;;5033216;28;20075;-77
2022/05/18 09:22:13;;;;;;;11.23;6.97;;;24.70;99.90;;;;;;5033206;28;20037;-78
2022/05/18 09:25:00;;;;;;;12.68;6.63;;;24.90;99.90;;;;;;5033306;28;20041;-78
2022/05/18 09:27:29;;;;;;;11.50;6.40;;;24.90;99.60;;;;;;5017375;28;20383;-77
2022/05/18 09:30:09;;;;;;;11.40;6.80;;;25.00;99.90;;;;;;5034037;28;20524;-74
2022/05/18 09:33:08;;;;;;;10.02;5.80;;;25.00;99.50;;;;;;5050719;28;20445;-75
2022/05/18 09:35:54;;;;;;;10.63;5.95;;;25.10;99.90;;;;;;5027732;28;20481;-74
2022/05/18 09:38:50;;;;;;;13.15;6.70;;;25.00;99.90;;;;;;5035760;28;20037;-75
2022/05/18 09:41:18;;;;;;;12.25;7.22;;;25.10;99.90;;;;;;5035086;28;20029;-81
2022/05/18 09:43:56;;;;;;;10.20;6.43;;;25.20;99.90;;;;;;5015854;28;20076;-81
2022/05/18 09:46:26;;;;;;;10.02;6.15;;;25.30;99.90;;;;;;5048375;28;20047;-81
2022/05/18 09:48:57;;;;;;;11.18;7.05;;;25.40;99.90;;;;;;5051595;28;20051;-81
2022/05/18 09:51:24;;;;;;;13.80;7.33;;;25.50;99.90;;;;;;5052120;28;20087;-81
2022/05/18 09:53:50;;;;;;;9.18;5.97;;;25.60;99.60;;;;;;5036171;28;20052;-81
2022/05/18 09:56:37;;;;;;;11.88;5.78;;;25.60;99.70;;;;;;5052493;28;20033;-81
2022/05/18 09:59:09;;;;;;;10.95;5.35;;;25.70;99.90;;;;;;5051803;28;20043;-81
2022/05/18 10:07:29;;;;;;;10.85;5.63;;;26.00;98.90;;;;;;5050549;28;20040;-81
2022/05/18 10:10:12;;;;;;;10.05;4.90;;;26.00;98.40;;;;;;5031772;28;20397;-81
2022/05/18 10:12:46;;;;;;;9.13;5.30;;;26.00;99.20;;;;;;5052107;28;20107;-81
2022/05/18 10:15:39;;;;;;;11.68;5.90;;;26.10;99.90;;;;;;5048248;28;20041;-81
2022/05/18 10:18:51;;;;;;;8.55;4.55;;;26.20;99.10;;;;;;5032138;28;20038;-81
2022/05/18 10:21:16;;;;;;;10.40;5.55;;;26.30;97.70;;;;;;5050348;28;20041;-81
2022/05/18 10:23:51;;;;;;;11.73;5.75;;;26.30;97.70;;;;;;5035111;28;20106;-81
2022/05/18 10:26:24;;;;;;;13.35;5.45;;;26.30;97.10;;;;;;5052201;28;20064;-80
2022/05/18 10:29:18;;;;;;;11.48;6.30;;;26.30;98.40;;;;;;5052043;28;20046;-80
2022/05/18 10:32:00;;;;;;;11.13;7.28;;;26.40;98.60;;;;;;5030924;28;20065;-81
2022/05/18 10:34:29;;;;;;;11.02;7.25;;;26.50;97.60;;;;;;5048062;28;20087;-80
2022/05/18 10:36:57;;;;;;;10.88;6.68;;;26.50;97.00;;;;;;5033253;28;20064;-81
2022/05/18 10:39:41;;;;;;;12.48;7.25;;;26.50;98.20;;;;;;5050779;28;20033;-80
2022/05/18 10:42:14;;;;;;;13.07;7.47;;;26.50;98.00;;;;;;5051084;28;20049;-81
2022/05/18 10:44:41;;;;;;;10.77;6.82;;;26.60;98.60;;;;;;5051035;28;20037;-81
2022/05/18 10:47:17;;;;;;;12.98;7.43;;;26.70;98.80;;;;;;5051570;28;20098;-80
2022/05/18 10:49:44;;;;;;;11.20;7.72;;;26.80;98.60;;;;;;5051019;28;20413;-80
2022/05/18 10:52:19;;;;;;;11.93;7.72;;;26.70;98.40;;;;;;5050607;28;20123;-80
2022/05/18 10:55:01;;;;;;;11.10;6.00;;;26.80;98.00;;;;;;5047730;28;20130;-80
2022/05/18 10:57:31;;;;;;;11.07;5.95;;;26.70;98.10;;;;;;5042723;28;20041;-80
2022/05/18 11:00:07;;;;;;;10.32;6.00;;;26.90;98.40;;;;;;5049843;28;20041;-80
2022/05/18 11:02:55;;;;;;;10.73;6.18;;;26.90;98.20;;;;;;5034882;28;20063;-80
2022/05/18 11:05:35;;;;;;;10.95;6.80;;;26.90;97.50;;;;;;5024262;28;20060;-80
2022/05/18 11:08:00;;;;;;;11.20;6.50;;;26.90;98.00;;;;;;5046018;28;20040;-81
2022/05/18 11:10:38;;;;;;;15.90;8.02;;;26.90;97.50;;;;;;5049871;28;20037;-80
2022/05/18 11:13:26;;;;;;;12.40;7.35;;;26.80;96.30;;;;;;5051067;28;20037;-80
2022/05/18 11:16:20;;;;;;;12.07;7.93;;;26.90;97.30;;;;;;5034126;28;20167;-80
2022/05/18 11:19:23;;;;;;;12.25;7.65;;;26.90;97.30;;;;;;5033877;28;20037;-81
2022/05/18 11:22:18;;;;;;;11.88;7.68;;;26.90;97.70;;;;;;5050348;28;20037;-80
2022/05/18 11:25:00;;;;;;;12.95;9.23;;;26.90;96.60;;;;;;5034375;28;20041;-81
2022/05/18 11:27:29;;;;;;;15.00;8.80;;;26.90;96.70;;;;;;5048869;28;20049;-81
2022/05/18 11:30:11;;;;;;;11.80;7.50;;;26.80;97.30;;;;;;5033664;28;20069;-80
2022/05/18 11:32:59;;;;;;;9.98;6.15;;;26.70;98.10;;;;;;5033964;28;20493;-80
2022/05/18 11:35:40;;;;;;;12.70;7.40;;;26.70;97.60;;;;;;5030592;28;20182;-81
2022/05/18 11:38:38;;;;;;;13.85;7.00;;;26.70;97.20;;;;;;5038324;28;20122;-80
2022/05/18 11:41:32;;;;;;;10.70;6.57;;;26.70;97.10;;;;;;5054176;28;20128;-81
2022/05/18 11:44:18;;;;;;;11.35;5.80;;;26.70;96.60;;;;;;5053688;28;20037;-81
2022/05/18 11:46:46;;;;;;;13.55;5.65;;;26.80;96.50;;;;;;5051518;28;20128;-81
2022/05/18 11:49:34;;;;;;;9.10;5.60;;;26.90;96.70;;;;;;5054049;28;20045;-81
2022/05/18 11:52:35;;;;;;;9.68;6.30;;;27.00;96.70;;;;;;5052672;28;20037;-81
2022/05/18 11:55:10;;;;;;;13.85;7.20;;;27.00;95.40;;;;;;5032753;28;20041;-81
2022/05/18 11:57:45;;;;;;;13.50;7.80;;;26.70;95.70;;;;;;5021095;28;20037;-81
2022/05/18 12:00:44;;;;;;;13.45;8.43;;;26.80;96.00;;;;;;5053915;28;20033;-81
2022/05/18 12:03:28;;;;;;;11.23;8.23;;;26.70;96.40;;;;;;5035372;28;20049;-81
2022/05/18 12:06:07;;;;;;;8.85;6.40;;;26.60;96.90;;;;;;5034522;28;20044;-81
2022/05/18 12:08:52;;;;;;;9.57;5.63;;;26.60;96.70;;;;;;5034940;28;20037;-81
2022/05/18 12:11:36;;;;;;;10.95;6.78;;;26.60;96.60;;;;;;5036996;28;20041;-81
2022/05/18 12:14:04;;;;;;;12.77;7.05;;;26.60;95.50;;;;;;5053291;28;20051;-81
2022/05/18 12:16:41;;;;;;;11.27;6.65;;;26.60;95.90;;;;;;5037566;28;20037;-75
2022/05/18 12:19:23;;;;;;;10.80;6.55;;;26.50;96.80;;;;;;5053283;28;20048;-75
2022/05/18 12:21:58;;;;;;;12.40;7.65;;;26.30;95.70;;;;;;5037115;28;20037;-75
2022/05/18 12:24:25;;;;;;;12.70;6.80;;;26.20;96.90;;;;;;5032869;28;20444;-75
2022/05/18 12:26:53;;;;;;;12.60;7.90;;;26.20;97.60;;;;;;5053463;28;20084;-75
2022/05/18 12:29:23;;;;;;;17.20;10.23;;;26.10;98.60;;;;;;5053879;28;20496;-75
2022/05/18 12:31:51;;;;;;;13.10;9.45;;;26.00;99.00;;;;;;5036668;28;20041;-75
2022/05/18 12:34:20;;;;;;;15.00;8.75;;;26.00;99.70;;;;;;5052196;28;20033;-75
2022/05/18 12:36:51;;;;;;;14.60;9.70;;;25.80;99.50;;;;;;5035300;28;20094;-75
2022/05/18 12:39:39;;;;;;;16.95;8.93;;;25.80;99.90;;;;;;5052148;28;20547;-75
2022/05/18 12:42:08;;;;;;;12.13;7.30;;;25.90;99.90;;;;;;5034818;28;20120;-75
2022/05/18 12:44:55;;;;;;;12.23;6.80;;;25.80;99.40;;;;;;5049126;28;20048;-75
2022/05/18 12:47:39;;;;;;;10.73;6.43;;;25.70;99.90;;;;;;5049651;28;20150;-75
2022/05/18 12:50:14;;;;;;;10.23;5.70;;;25.90;99.90;;;;;;5036496;28;20045;-75
2022/05/18 12:52:52;;;;;;;11.82;5.97;;;25.90;99.90;;;;;;5036488;28;20048;-75
2022/05/18 12:55:41;;;;;;;9.13;5.75;;;26.00;99.50;;;;;;5017966;28;20087;-73
2022/05/18 12:58:10;;;;;;;10.45;6.05;;;26.10;98.00;;;;;;5036774;28;20481;-75
2022/05/18 13:00:56;;;;;;;9.15;5.75;;;25.90;99.00;;;;;;5032093;28;20047;-74
2022/05/18 13:03:31;;;;;;;8.45;4.90;;;25.70;99.40;;;;;;5047290;28;20083;-75
2022/05/18 13:05:59;;;;;;;9.80;5.20;;;25.70;99.90;;;;;;5033549;28;20047;-75
2022/05/18 13:08:24;;;;;;;11.45;4.90;;;25.80;99.30;;;;;;5053191;28;20049;-75
2022/05/18 13:11:10;;;;;;;7.47;4.60;;;25.70;99.80;;;;;;5053400;28;20041;-75
2022/05/18 13:13:56;;;;;;;10.07;4.63;;;25.70;99.90;;;;;;5050465;28;20076;-75